M I D A S
Marine Information and Data Acquisition System
Tripno 806 of the Zeeleeuw from 2004-11-18 10:02:50 to 2004-11-18 14:23:46
Back to CruiseResearch ActivitiesStationsMapUnderway DataData graphs

EquipmentUnitsComment
TimeDGPSUTC
LatitudeDGPSDM.mWGS84
LongitudeDGPSDM.mWGS84
TemperatureSBE03/SBE38deg celciusITS90
ConductivitySBE21S/mITS90
SalinitySBE21 Practical Salinity Units
ChlorophylAChelsea fluorimeterg/lCalibrated in Aceton
Missing or incorrect values are displayed as -999
Sea surface data collected by the RV Zeeleeuw from 2004-11-18 10:02:50 to 2004-11-18 14:23:46
Time Latitude Longitude Temperature Conductivity Salinity ChlorophylA
2004-11-18 10:04:16 51°22.591 3°13.13 10.254491 3.625066 32.734477 4.005486
2004-11-18 10:05:16 51°22.591 3°13.102 10.256358 3.627278 32.758156 3.971777
2004-11-18 10:06:22 51°22.589 3°13.074 10.291515 3.62791 32.753569 3.971777
2004-11-18 10:07:26 51°22.591 3°13.049 10.274166 3.620956 32.66559 4.140324
2004-11-18 10:08:26 51°22.608 3°13.035 10.269475 3.623274 32.704844 4.241452
2004-11-18 10:09:23 51°22.62 3°13.027 10.262563 3.621588 32.686469 4.207742
2004-11-18 10:10:34 51°22.628 3°13.008 10.259486 3.619165 32.665055 4.174033
2004-11-18 10:11:34 51°22.631 3°12.991 10.259234 3.617584 32.6521 4.072905
2004-11-18 10:12:44 51°22.631 3°12.968 10.246518 3.612527 32.605701 4.039195
2004-11-18 10:14:02 51°22.631 3°12.939 10.246973 3.618006 32.657783 4.039195
2004-11-18 10:15:09 51°22.63 3°12.914 10.247023 3.615582 32.634914 3.904358
2004-11-18 10:16:08 51°22.628 3°12.893 10.25656 3.614634 32.626123 3.938067
2004-11-18 10:17:10 51°22.632 3°12.874 10.249748 3.615372 32.635704 3.938067
2004-11-18 10:18:38 51°22.691 3°12.798 10.236022 3.611473 32.60456 3.702101
2004-11-18 10:19:38 51°22.718 3°12.574 10.228753 3.607469 32.569449 3.634683
2004-11-18 10:20:46 51°22.807 3°12.182 10.248486 3.601674 32.514909 3.263879
2004-11-18 10:21:46 51°22.899 3°11.82 10.269777 3.611368 32.583918 4.308871
2004-11-18 10:23:02 51°23.011 3°11.378 10.281379 3.63792 32.834365 4.207742
2004-11-18 10:24:11 51°23.112 3°10.979 10.284203 3.610314 32.552348 4.039195
2004-11-18 10:25:23 51°23.23 3°10.572 10.274569 3.612 32.569973 3.668392
2004-11-18 10:27:21 51°23.568 3°10.129 10.269122 3.617057 32.631565 3.297589
2004-11-18 10:28:38 51°23.807 3°9.859 10.267659 3.598934 32.447681 3.19646
2004-11-18 10:29:38 51°23.995 3°9.658 10.257115 3.63065 32.775971 2.859366
2004-11-18 10:30:44 51°24.179 3°9.402 10.253078 3.638658 32.868082 2.65711
2004-11-18 10:32:02 51°24.262 3°8.941 10.220929 3.638026 32.865388 3.129042
2004-11-18 10:32:59 51°24.278 3°8.577 10.196694 3.6375 32.896711 3.466136
2004-11-18 10:34:10 51°24.306 3°8.122 10.190482 3.631178 32.842644 3.19646
2004-11-18 10:36:04 51°24.35 3°7.405 10.164114 3.612317 32.670485 3.297589
2004-11-18 10:37:03 51°24.375 3°7.035 10.145772 3.62317 32.793546 3.499845
2004-11-18 10:38:04 51°24.399 3°6.649 10.126312 3.621274 32.792022 3.466136
2004-11-18 10:39:04 51°24.428 3°6.274 10.11792 3.612634 32.722573 3.466136
2004-11-18 10:40:30 51°24.46 3°5.738 10.11706 3.613898 32.738234 3.162751
2004-11-18 10:41:29 51°24.492 3°5.369 10.113622 3.613477 32.731063 3.095332
2004-11-18 10:42:36 51°24.565 3°4.966 10.065369 3.61 32.718709 3.19646
2004-11-18 10:44:00 51°24.663 3°4.461 10.049884 3.594828 32.603044 2.859366
2004-11-18 10:45:00 51°24.724 3°4.093 10.041381 3.600096 32.65909 2.859366
2004-11-18 10:46:06 51°24.772 3°3.682 10.03642 3.597989 32.645879 2.859366
2004-11-18 10:47:07 51°24.8 3°3.309 10.032725 3.593458 32.606025 2.65711
2004-11-18 10:48:06 51°24.819 3°2.93 10.033079 3.594617 32.616985 2.65711
2004-11-18 10:49:15 51°24.837 3°2.489 10.043102 3.599991 32.663878 2.555982
2004-11-18 10:50:15 51°24.851 3°2.104 10.045531 3.600096 32.66421 2.522272
2004-11-18 10:51:42 51°24.844 3°1.546 10.018954 3.597567 32.651866 2.454853
2004-11-18 10:53:20 51°24.883 3°0.919 10.045228 3.605154 32.729158 2.421144
2004-11-18 10:54:26 51°24.898 3°0.494 10.036066 3.593669 32.58917 2.252597
2004-11-18 10:55:59 51°24.919 2°59.907 10.003611 3.605049 32.747173 1.746956
2004-11-18 10:57:10 51°24.935 2°59.468 9.995811 3.610317 32.812159 1.679537
2004-11-18 10:58:10 51°24.947 2°59.098 9.985832 3.608842 32.792839 1.679537
2004-11-18 10:59:14 51°24.96 2°58.702 9.981627 3.608842 32.802403 1.645828
2004-11-18 11:01:32 51°24.939 2°57.838 9.994646 3.612425 32.845981 1.746956
2004-11-18 11:03:34 51°25.009 2°57.085 10.004117 3.615375 32.8618 1.780665
2004-11-18 11:05:03 51°25.054 2°56.526 10.00594 3.615375 32.863274 1.679537
2004-11-18 11:06:03 51°25.084 2°56.148 10.011815 3.61706 32.872942 1.679537
2004-11-18 11:07:21 51°25.124 2°55.652 10.048619 3.624857 32.931078 1.612118
2004-11-18 11:08:35 51°25.158 2°55.191 10.078422 3.633708 32.98873 1.443571
2004-11-18 11:10:00 51°25.202 2°54.662 10.100778 3.641927 33.048059 1.612118
2004-11-18 11:11:07 51°25.235 2°54.24 10.118071 3.645298 33.067302 1.275024
2004-11-18 11:12:06 51°25.266 2°53.876 10.129395 3.647511 33.078537 1.173896
2004-11-18 11:13:10 51°25.298 2°53.477 10.174319 3.648565 33.0766 1.106477
2004-11-18 11:14:10 51°25.328 2°53.105 10.209823 3.656994 33.109111 1.039059
2004-11-18 11:15:39 51°25.37 2°52.544 10.314154 3.673221 33.188244 1.039059
2004-11-18 11:16:58 51°25.406 2°52.054 10.297264 3.675328 33.20574 1.106477
2004-11-18 11:17:58 51°25.438 2°51.676 10.279916 3.67459 33.204232 1.106477
2004-11-18 11:18:58 51°25.484 2°51.303 10.277091 3.674169 33.209596 1.106477
2004-11-18 11:19:55 51°25.535 2°50.955 10.32736 3.680597 33.254277 0.97164
2004-11-18 11:20:58 51°25.594 2°50.563 10.364344 3.690186 33.307757 0.904221
2004-11-18 11:21:56 51°25.649 2°50.209 10.394612 3.6944 33.321988 0.836802
2004-11-18 11:23:00 51°25.709 2°49.814 10.428087 3.698088 33.333875 0.769383
2004-11-18 11:24:06 51°25.778 2°49.413 10.468185 3.70578 33.366694 0.668255
2004-11-18 11:25:06 51°25.841 2°49.051 10.495741 3.711365 33.397545 0.701965
2004-11-18 11:26:24 51°25.911 2°48.65 10.56157 3.723273 33.481321 0.600836
2004-11-18 11:27:25 51°26.004 2°48.6 10.922732 3.760577 33.64706 0.735674
2004-11-18 11:28:40 51°26.029 2°48.606 11.021228 3.79725 33.792696 0.93793
2004-11-18 11:29:56 51°26.019 2°48.609 11.080865 3.809791 33.834553 0.904221
2004-11-18 11:31:38 51°25.998 2°48.596 11.054693 3.807156 33.824645 0.93793
2004-11-18 11:33:08 51°25.978 2°48.582 11.060127 3.807472 33.826305 0.870512
2004-11-18 11:34:36 51°25.961 2°48.57 11.081363 3.808947 33.829149 0.904221
2004-11-18 11:36:02 51°25.969 2°48.558 11.067606 3.808421 33.827608 0.93793
2004-11-18 11:37:26 51°25.943 2°48.404 11.09462 3.809685 33.838655 0.93793
2004-11-18 11:38:32 51°25.786 2°48.243 11.123864 3.817062 33.863132 0.97164
2004-11-18 11:39:53 51°25.545 2°47.897 11.125309 3.814533 33.85061 0.836802
2004-11-18 11:41:18 51°25.283 2°47.521 11.002369 3.806313 33.819238 1.039059
2004-11-18 11:42:45 51°25.016 2°47.135 10.590143 3.746456 33.568245 0.735674
2004-11-18 11:44:27 51°24.701 2°46.679 10.568802 3.72538 33.449232 0.634546
2004-11-18 11:46:42 51°24.283 2°46.072 10.593707 3.725591 33.435858 0.668255
2004-11-18 11:47:42 51°24.099 2°45.796 10.610673 3.726117 33.4286 0.600836
2004-11-18 11:48:48 51°23.895 2°45.498 10.618402 3.727066 33.427028 0.634546
2004-11-18 11:49:58 51°23.676 2°45.177 10.623872 3.727382 33.427977 0.769383
2004-11-18 11:51:18 51°23.431 2°44.812 10.633004 3.728752 33.433558 0.735674
2004-11-18 11:52:30 51°23.208 2°44.482 10.645295 3.730543 33.443345 0.701965
2004-11-18 11:53:32 51°23.015 2°44.201 10.654826 3.731491 33.44398 0.769383
2004-11-18 11:54:53 51°22.763 2°43.835 10.700854 3.737498 33.467852 0.97164
2004-11-18 11:56:23 51°22.486 2°43.43 10.729067 3.74361 33.495682 1.072768
2004-11-18 11:57:46 51°22.229 2°43.056 10.75201 3.746982 33.51016 1.072768
2004-11-18 11:59:28 51°21.915 2°42.604 10.788111 3.753094 33.544549 1.039059
2004-11-18 12:00:28 51°21.732 2°42.334 10.81899 3.757204 33.562659 1.140187
2004-11-18 12:01:40 51°21.513 2°42.02 10.834399 3.761946 33.587776 1.173896
2004-11-18 12:02:40 51°21.329 2°41.759 10.862856 3.765845 33.600082 1.275024
2004-11-18 12:03:39 51°21.147 2°41.5 10.860206 3.766056 33.594097 1.308734
2004-11-18 12:04:39 51°20.964 2°41.233 10.846003 3.763737 33.573999 1.275024
2004-11-18 12:05:50 51°20.747 2°40.932 10.81974 3.758573 33.544702 1.342443
2004-11-18 12:06:50 51°20.563 2°40.672 10.793467 3.752988 33.50972 1.443571
2004-11-18 12:07:50 51°20.381 2°40.406 10.739838 3.74382 33.455195 1.308734
2004-11-18 12:09:18 51°20.113 2°40.019 10.636365 3.724747 33.359811 1.275024
2004-11-18 12:10:21 51°19.919 2°39.734 10.589641 3.715368 33.312461 1.308734
2004-11-18 12:11:42 51°19.649 2°39.406 10.538562 3.707992 33.280623 1.275024
2004-11-18 12:12:48 51°19.428 2°39.14 10.490613 3.703988 33.293484 1.51099
2004-11-18 12:13:51 51°19.217 2°38.879 10.452994 3.7003 33.286 1.578409
2004-11-18 12:14:59 51°18.981 2°38.629 10.460741 3.703357 33.331339 1.746956
2004-11-18 12:16:00 51°18.765 2°38.416 10.467933 3.710417 33.396908 2.151469
2004-11-18 12:17:18 51°18.488 2°38.145 10.478193 3.713473 33.422354 2.08405
2004-11-18 12:18:38 51°18.206 2°37.864 10.503131 3.718953 33.460242 2.218888
2004-11-18 12:19:42 51°17.981 2°37.639 10.516854 3.721798 33.476903 2.185178
2004-11-18 12:20:58 51°17.714 2°37.362 10.532985 3.725064 33.494078 2.218888
2004-11-18 12:22:06 51°17.474 2°37.121 10.575833 3.731809 33.533463 2.286306
2004-11-18 12:23:05 51°17.263 2°36.911 10.626531 3.738658 33.568678 2.185178
2004-11-18 12:24:04 51°17.088 2°36.826 10.644041 3.74888 33.628656 2.454853
2004-11-18 12:25:26 51°16.943 2°36.839 10.60977 3.746457 33.632574 2.859366
2004-11-18 12:26:28 51°16.863 2°36.807 10.611978 3.747405 33.63761 3.162751
2004-11-18 12:27:40 51°16.754 2°36.773 10.629141 3.751093 33.658173 2.859366
2004-11-18 12:28:50 51°16.645 2°36.757 10.635262 3.751726 33.662268 2.758238
2004-11-18 12:29:50 51°16.61 2°36.734 10.557903 3.750145 33.655364 3.129042
2004-11-18 12:31:05 51°16.597 2°36.701 10.618051 3.749407 33.651696 2.960494
2004-11-18 12:32:20 51°16.572 2°36.666 10.565538 3.746246 33.640102 2.859366
2004-11-18 12:33:27 51°16.545 2°36.634 10.439711 3.731915 33.575265 2.859366
2004-11-18 12:34:48 51°16.511 2°36.591 10.423004 3.720113 33.52373 3.027913
2004-11-18 12:35:54 51°16.484 2°36.551 10.427785 3.720218 33.525529 2.690819
2004-11-18 12:37:08 51°16.425 2°36.502 10.454553 3.723274 33.542822 2.724529
2004-11-18 12:38:08 51°16.32 2°36.502 10.439762 3.72496 33.564192 2.690819
2004-11-18 12:39:15 51°16.107 2°36.572 10.425671 3.721799 33.55625 2.690819
2004-11-18 12:40:22 51°15.864 2°36.667 10.468939 3.731178 33.617645 3.027913
2004-11-18 12:41:22 51°15.646 2°36.788 10.447359 3.73592 33.66448 3.600973
2004-11-18 12:42:22 51°15.428 2°36.899 10.409766 3.736869 33.698609 4.106614
2004-11-18 12:43:22 51°15.208 2°37.018 10.40438 3.736237 33.716159 4.578546
2004-11-18 12:44:36 51°14.958 2°37.214 10.459835 3.740452 33.75478 4.477418
2004-11-18 12:45:40 51°14.817 2°37.506 10.485384 3.747934 33.770109 4.578546
2004-11-18 12:46:40 51°14.697 2°37.798 10.468336 3.748566 33.781685 4.814512
2004-11-18 12:47:40 51°14.569 2°38.088 10.478344 3.746775 33.77043 4.477418
2004-11-18 12:48:38 51°14.437 2°38.367 10.504087 3.750779 33.784464 4.949349
2004-11-18 12:49:39 51°14.271 2°38.633 10.517105 3.753624 33.800304 4.713383
2004-11-18 12:50:39 51°14.104 2°38.884 10.494283 3.762055 33.876637 5.016768
2004-11-18 12:51:48 51°13.88 2°39.088 10.448617 3.768063 33.981205 5.926922
2004-11-18 12:52:48 51°13.642 2°39.095 10.439762 3.770909 34.027113 6.702238
2004-11-18 12:53:50 51°13.419 2°38.921 10.441523 3.773859 34.053762 6.735947
2004-11-18 12:55:10 51°13.152 2°38.627 10.399748 3.762794 33.966612 6.162888
2004-11-18 12:56:10 51°12.951 2°38.411 10.371195 3.75215 33.894155 5.589828
2004-11-18 12:57:10 51°12.745 2°38.2 10.357241 3.745933 33.849627 5.690956
2004-11-18 12:58:16 51°12.516 2°37.975 10.356536 3.744247 33.840921 5.623537
2004-11-18 12:59:17 51°12.307 2°37.767 10.36374 3.745511 33.849142 6.061759
2004-11-18 13:00:18 51°12.093 2°37.561 10.393253 3.748673 33.874949 6.297725
2004-11-18 13:01:16 51°11.892 2°37.361 10.381167 3.752466 33.904857 6.634819
2004-11-18 13:02:22 51°11.667 2°37.125 10.398036 3.756893 33.940368 7.039332
2004-11-18 13:03:44 51°11.386 2°36.841 10.437648 3.766272 34.003092 7.983195
2004-11-18 13:04:56 51°11.143 2°36.586 10.491066 3.773438 34.03822 7.71352
2004-11-18 13:06:17 51°10.863 2°36.299 10.549967 3.782922 34.07022 8.623674
2004-11-18 13:07:46 51°10.557 2°35.991 10.662048 3.791669 34.105284 9.163024
2004-11-18 13:08:48 51°10.326 2°35.833 10.849204 3.811059 34.149905 8.421418
2004-11-18 13:10:08 51°10.016 2°35.732 10.99668 3.839092 34.240004 9.028187
2004-11-18 13:11:14 51°9.757 2°35.759 10.845053 3.83709 34.255208 8.792221
2004-11-18 13:12:14 51°9.594 2°35.978 10.668216 3.817172 34.181708 7.983195
2004-11-18 13:13:28 51°9.6 2°36.39 10.328167 3.776494 34.078741 6.735947
2004-11-18 13:14:28 51°9.672 2°36.708 10.247982 3.755629 34.009886 6.095469
2004-11-18 13:15:26 51°9.744 2°37.015 10.198159 3.746883 33.985932 5.320153
2004-11-18 13:16:34 51°9.839 2°37.368 10.171995 3.740982 33.961899 5.117896
2004-11-18 13:17:34 51°9.921 2°37.682 10.138999 3.735502 33.944375 4.645965
2004-11-18 13:19:05 51°10.06 2°38.152 10.094861 3.72939 33.917389 4.409999
2004-11-18 13:20:06 51°10.14 2°38.474 10.081609 3.726334 33.904642 4.443708
2004-11-18 13:21:34 51°10.257 2°38.942 10.076752 3.722646 33.886994 4.241452
2004-11-18 13:22:57 51°10.362 2°39.384 10.076955 3.722541 33.884409 4.140324
2004-11-18 13:24:26 51°10.481 2°39.858 10.087982 3.722751 33.874407 4.174033
2004-11-18 13:25:42 51°10.583 2°40.267 10.092029 3.722435 33.869688 4.275161
2004-11-18 13:26:43 51°10.651 2°40.603 10.095164 3.722224 33.860731 4.376289
2004-11-18 13:27:48 51°10.722 2°40.965 10.08262 3.721171 33.85915 4.308871
2004-11-18 13:29:15 51°10.845 2°41.429 10.058487 3.717166 33.839792 4.34258
2004-11-18 13:30:27 51°10.976 2°41.778 10.040419 3.712108 33.808217 3.971777
2004-11-18 13:31:44 51°11.069 2°41.978 10.015612 3.708842 33.794032 3.836939
2004-11-18 13:33:08 51°11.082 2°42.015 10.011764 3.70705 33.784195 3.702101
2004-11-18 13:34:14 51°11.074 2°42.033 10.024929 3.706734 33.778714 3.702101
2004-11-18 13:35:13 51°11.068 2°42.05 9.996723 3.706207 33.771853 3.702101
2004-11-18 13:36:28 51°11.063 2°42.078 9.992265 3.70547 33.774977 3.80323
2004-11-18 13:37:27 51°11.064 2°42.099 9.988669 3.704943 33.77342 3.600973
2004-11-18 13:38:27 51°11.067 2°42.121 9.984008 3.703362 33.765715 3.735811
2004-11-18 13:39:38 51°11.076 2°42.139 9.980006 3.703889 33.768031 3.533554
2004-11-18 13:40:48 51°11.086 2°42.151 9.986237 3.702835 33.760367 3.735811
2004-11-18 13:41:56 51°11.102 2°42.163 9.980614 3.70273 33.762329 3.668392
2004-11-18 13:43:01 51°11.148 2°42.294 9.981931 3.70273 33.760055 3.567264
2004-11-18 13:44:06 51°11.135 2°42.607 9.964299 3.701149 33.749315 3.432426
2004-11-18 13:45:26 51°11.132 2°43.072 9.962576 3.699674 33.750254 3.129042
2004-11-18 13:46:34 51°11.138 2°43.465 9.910563 3.693141 33.705115 2.859366
2004-11-18 13:47:50 51°11.181 2°43.889 9.906708 3.668799 33.494851 1.881794
2004-11-18 13:48:56 51°11.253 2°44.245 9.894839 3.665954 33.468207 1.713247
2004-11-18 13:50:17 51°11.346 2°44.682 9.920248 3.665638 33.464996 1.780665
2004-11-18 13:51:22 51°11.415 2°45.033 9.914924 3.666376 33.471736 1.982922
2004-11-18 13:52:34 51°11.488 2°45.426 9.912084 3.66332 33.441446 1.848084
2004-11-18 13:53:47 51°11.564 2°45.824 9.897477 3.662266 33.429238 1.915503
2004-11-18 13:55:00 51°11.663 2°46.212 9.873124 3.65626 33.389282 1.814375
2004-11-18 13:56:04 51°11.752 2°46.55 9.895448 3.657419 33.400307 1.848084
2004-11-18 13:57:10 51°11.847 2°46.897 9.88586 3.655733 33.386184 1.746956
2004-11-18 13:58:24 51°11.952 2°47.289 9.880228 3.654679 33.379989 1.713247
2004-11-18 13:59:35 51°12.051 2°47.669 9.898339 3.659 33.40734 1.881794
2004-11-18 14:00:50 51°12.156 2°48.073 9.897477 3.662055 33.428602 1.780665
2004-11-18 14:02:00 51°12.273 2°48.431 9.829674 3.634554 33.206973 1.814375
2004-11-18 14:03:00 51°12.382 2°48.731 9.857189 3.63487 33.204196 1.645828
2004-11-18 14:04:06 51°12.504 2°49.059 9.848509 3.63624 33.208384 1.949212
2004-11-18 14:05:15 51°12.63 2°49.403 9.867035 3.634132 33.18922 1.915503
2004-11-18 14:06:16 51°12.739 2°49.708 9.852723 3.631182 33.155514 1.949212
2004-11-18 14:07:22 51°12.856 2°50.038 9.861858 3.630444 33.145783 1.949212
2004-11-18 14:08:21 51°12.962 2°50.334 9.84658 3.623701 33.088495 1.949212
2004-11-18 14:09:31 51°13.09 2°50.686 9.860793 3.623701 33.084766 2.117759
2004-11-18 14:10:46 51°13.224 2°51.067 9.892404 3.63371 33.16924 1.915503
2004-11-18 14:11:55 51°13.349 2°51.42 9.936017 3.652045 33.311952 1.780665
2004-11-18 14:12:54 51°13.457 2°51.72 9.852469 3.640559 33.217093 2.016631
2004-11-18 14:13:56 51°13.577 2°52.028 9.830182 3.606842 32.92774 2.387435
2004-11-18 14:14:55 51°13.692 2°52.322 9.8151 3.599677 32.869842 2.353725
2004-11-18 14:16:18 51°13.851 2°52.736 9.809564 3.588614 32.776032 2.421144
2004-11-18 14:17:26 51°13.985 2°53.074 9.806465 3.586612 32.753489 2.555982
2004-11-18 14:18:36 51°14.123 2°53.422 9.796661 3.586612 32.755707 2.589691
2004-11-18 14:19:39 51°14.246 2°53.739 9.764344 3.570176 32.613922 2.488563
2004-11-18 14:21:06 51°14.336 2°54.233 9.776084 3.566278 32.578025 2.387435
2004-11-18 14:22:06 51°14.388 2°54.572 9.777557 3.568385 32.586169 2.65711
2004-11-18 14:23:05 51°14.398 2°54.894 9.796865 3.558165 32.471469 2.65711